Accueil
METAR-TAF:

METAR-TAF

Aéroports :

Padoue, Italie

latitude: 45-23-45N, longitude: 11-50-53E, altitude: 13 m

Observation

Le bulletin a été fait il y a 54 minutes, à 06:00 UTC
Vent 6 kt de nord-est
Température 18°C
Humidité 94%
Pression 1014 hPa
Visibilité: 5000 m
Quelques nuages à une hauteur de 4000 ft
brume

METAR: LIPU 260600Z 05006KT 5000 BR FEW040 18/17 Q1014

Heure: 08:54 (06:54 UTC)


TAF: absent

Observations et prévisions météorologiques de plus de 4000 aéroports (messages METAR et TAF).

Les stations disponibles sont représentées par des disques jaunes et rouges sur la carte.

Passer la souris dessus pour voir le nom de la station.

Cliquer dessus pour voir les observations et prévisions météorologiques.

Pour changer de carte: cliquez sur les boutons verts avec une croix noire pour zoomer, sur le bouton vert avec un tiret pour effectuer un zoom arrière, ou sur les flèches vertes pour les cartes adjacentes.


METAR-TAF: